sensor_id;sensor_type;location;lat;lon;timestamp;P1;durP1;ratioP1;P2;durP2;ratioP2
70010;SDS011;59543;37.950;-122.338;2023-05-10T00:01:35;6.63;;;0.75;;
70010;SDS011;59543;37.950;-122.338;2023-05-10T00:04:01;7.18;;;1.00;;
70010;SDS011;59543;37.950;-122.338;2023-05-10T00:06:27;3.35;;;0.90;;
70010;SDS011;59543;37.950;-122.338;2023-05-10T00:08:53;4.10;;;0.82;;
70010;SDS011;59543;37.950;-122.338;2023-05-10T00:11:20;5.10;;;0.70;;
70010;SDS011;59543;37.950;-122.338;2023-05-10T00:13:46;2.15;;;0.68;;
70010;SDS011;59543;37.950;-122.338;2023-05-10T00:16:12;3.45;;;0.82;;
70010;SDS011;59543;37.950;-122.338;2023-05-10T00:18:39;3.45;;;0.63;;
70010;SDS011;59543;37.950;-122.338;2023-05-10T00:21:05;2.95;;;0.85;;
70010;SDS011;59543;37.950;-122.338;2023-05-10T00:23:31;3.67;;;1.20;;
70010;SDS011;59543;37.950;-122.338;2023-05-10T00:25:58;4.35;;;0.70;;
70010;SDS011;59543;37.950;-122.338;2023-05-10T00:28:24;3.10;;;0.93;;
70010;SDS011;59543;37.950;-122.338;2023-05-10T00:30:50;6.13;;;0.70;;
70010;SDS011;59543;37.950;-122.338;2023-05-10T00:33:16;5.53;;;0.70;;
70010;SDS011;59543;37.950;-122.338;2023-05-10T00:35:43;5.75;;;0.98;;
70010;SDS011;59543;37.950;-122.338;2023-05-10T00:38:09;3.58;;;0.82;;
70010;SDS011;59543;37.950;-122.338;2023-05-10T00:40:36;3.88;;;0.80;;
70010;SDS011;59543;37.950;-122.338;2023-05-10T00:43:02;4.32;;;0.75;;
70010;SDS011;59543;37.950;-122.338;2023-05-10T00:45:30;8.55;;;1.13;;
70010;SDS011;59543;37.950;-122.338;2023-05-10T00:48:01;7.47;;;0.98;;
70010;SDS011;59543;37.950;-122.338;2023-05-10T00:50:29;3.38;;;0.88;;
70010;SDS011;59543;37.950;-122.338;2023-05-10T00:53:00;2.70;;;1.00;;
70010;SDS011;59543;37.950;-122.338;2023-05-10T00:55:28;3.35;;;0.98;;
70010;SDS011;59543;37.950;-122.338;2023-05-10T00:57:55;4.18;;;0.82;;
70010;SDS011;59543;37.950;-122.338;2023-05-10T01:00:21;3.92;;;0.90;;
70010;SDS011;59543;37.950;-122.338;2023-05-10T01:02:48;4.80;;;0.77;;
70010;SDS011;59543;37.950;-122.338;2023-05-10T01:05:15;5.43;;;1.00;;
70010;SDS011;59543;37.950;-122.338;2023-05-10T01:07:41;5.18;;;1.15;;
70010;SDS011;59543;37.950;-122.338;2023-05-10T01:10:07;3.28;;;0.80;;
70010;SDS011;59543;37.950;-122.338;2023-05-10T01:12:35;3.45;;;0.70;;
70010;SDS011;59543;37.950;-122.338;2023-05-10T01:15:08;3.63;;;0.88;;
70010;SDS011;59543;37.950;-122.338;2023-05-10T01:17:37;2.13;;;0.55;;
70010;SDS011;59543;37.950;-122.338;2023-05-10T01:20:05;3.90;;;0.80;;
70010;SDS011;59543;37.950;-122.338;2023-05-10T01:27:58;5.95;;;0.77;;
70010;SDS011;59543;37.950;-122.338;2023-05-10T01:30:50;6.22;;;0.98;;
70010;SDS011;59543;37.950;-122.338;2023-05-10T01:36:17;3.40;;;0.68;;
70010;SDS011;59543;37.950;-122.338;2023-05-10T01:39:53;4.90;;;0.77;;
70010;SDS011;59543;37.950;-122.338;2023-05-10T01:42:01;5.70;;;0.88;;
70010;SDS011;59543;37.950;-122.338;2023-05-10T01:47:35;3.80;;;1.05;;
70010;SDS011;59543;37.950;-122.338;2023-05-10T01:50:06;7.32;;;1.15;;
70010;SDS011;59543;37.950;-122.338;2023-05-10T01:52:45;4.55;;;1.00;;
70010;SDS011;59543;37.950;-122.338;2023-05-10T01:55:18;4.07;;;0.80;;
70010;SDS011;59543;37.950;-122.338;2023-05-10T01:57:47;3.53;;;1.02;;
70010;SDS011;59543;37.950;-122.338;2023-05-10T02:00:21;4.72;;;1.13;;
70010;SDS011;59543;37.950;-122.338;2023-05-10T02:02:49;4.40;;;0.80;;
70010;SDS011;59543;37.950;-122.338;2023-05-10T02:05:17;8.63;;;1.15;;
70010;SDS011;59543;37.950;-122.338;2023-05-10T02:07:45;3.08;;;0.50;;
70010;SDS011;59543;37.950;-122.338;2023-05-10T02:10:13;7.68;;;0.75;;
70010;SDS011;59543;37.950;-122.338;2023-05-10T02:12:41;6.40;;;1.00;;
70010;SDS011;59543;37.950;-122.338;2023-05-10T02:15:10;4.00;;;0.93;;
70010;SDS011;59543;37.950;-122.338;2023-05-10T02:17:38;2.42;;;0.73;;
70010;SDS011;59543;37.950;-122.338;2023-05-10T02:20:07;3.13;;;0.70;;
70010;SDS011;59543;37.950;-122.338;2023-05-10T02:22:35;5.57;;;0.70;;
70010;SDS011;59543;37.950;-122.338;2023-05-10T02:25:04;3.95;;;0.85;;
70010;SDS011;59543;37.950;-122.338;2023-05-10T02:27:32;3.58;;;0.80;;
70010;SDS011;59543;37.950;-122.338;2023-05-10T02:30:00;5.65;;;0.90;;
70010;SDS011;59543;37.950;-122.338;2023-05-10T02:32:27;2.55;;;0.50;;
70010;SDS011;59543;37.950;-122.338;2023-05-10T02:34:55;4.97;;;1.10;;
70010;SDS011;59543;37.950;-122.338;2023-05-10T02:37:22;7.07;;;1.15;;
70010;SDS011;59543;37.950;-122.338;2023-05-10T02:39:50;4.18;;;1.15;;
70010;SDS011;59543;37.950;-122.338;2023-05-10T02:42:19;5.53;;;0.80;;
70010;SDS011;59543;37.950;-122.338;2023-05-10T02:44:53;9.00;;;0.93;;
70010;SDS011;59543;37.950;-122.338;2023-05-10T02:47:24;3.63;;;1.00;;
70010;SDS011;59543;37.950;-122.338;2023-05-10T02:49:51;5.55;;;1.00;;
70010;SDS011;59543;37.950;-122.338;2023-05-10T02:52:19;6.90;;;0.90;;
70010;SDS011;59543;37.950;-122.338;2023-05-10T02:54:52;6.55;;;1.00;;
70010;SDS011;59543;37.950;-122.338;2023-05-10T02:57:33;4.50;;;0.80;;
70010;SDS011;59543;37.950;-122.338;2023-05-10T03:00:03;4.38;;;1.10;;
70010;SDS011;59543;37.950;-122.338;2023-05-10T03:02:30;3.85;;;0.55;;
70010;SDS011;59543;37.950;-122.338;2023-05-10T03:04:56;4.38;;;0.75;;
70010;SDS011;59543;37.950;-122.338;2023-05-10T03:07:22;5.40;;;1.00;;
70010;SDS011;59543;37.950;-122.338;2023-05-10T03:09:49;6.53;;;1.23;;
70010;SDS011;59543;37.950;-122.338;2023-05-10T03:12:23;4.57;;;1.20;;
70010;SDS011;59543;37.950;-122.338;2023-05-10T03:18:01;3.15;;;0.90;;
70010;SDS011;59543;37.950;-122.338;2023-05-10T03:20:35;6.25;;;1.05;;
70010;SDS011;59543;37.950;-122.338;2023-05-10T03:23:11;5.55;;;0.98;;
70010;SDS011;59543;37.950;-122.338;2023-05-10T03:25:46;3.88;;;0.88;;
70010;SDS011;59543;37.950;-122.338;2023-05-10T03:28:15;3.97;;;1.10;;
70010;SDS011;59543;37.950;-122.338;2023-05-10T03:30:43;2.97;;;0.80;;
70010;SDS011;59543;37.950;-122.338;2023-05-10T03:33:10;4.63;;;0.90;;
70010;SDS011;59543;37.950;-122.338;2023-05-10T03:35:38;4.20;;;1.08;;
70010;SDS011;59543;37.950;-122.338;2023-05-10T03:38:04;4.55;;;0.80;;
70010;SDS011;59543;37.950;-122.338;2023-05-10T03:40:30;12.80;;;1.38;;
70010;SDS011;59543;37.950;-122.338;2023-05-10T03:42:57;4.88;;;0.88;;
70010;SDS011;59543;37.950;-122.338;2023-05-10T03:45:24;4.10;;;0.73;;
70010;SDS011;59543;37.950;-122.338;2023-05-10T03:47:50;4.25;;;0.88;;
70010;SDS011;59543;37.950;-122.338;2023-05-10T03:50:17;5.32;;;1.02;;
70010;SDS011;59543;37.950;-122.338;2023-05-10T03:52:43;4.43;;;1.10;;
70010;SDS011;59543;37.950;-122.338;2023-05-10T03:55:10;3.28;;;0.68;;
70010;SDS011;59543;37.950;-122.338;2023-05-10T03:57:36;4.25;;;0.90;;
70010;SDS011;59543;37.950;-122.338;2023-05-10T04:00:03;3.88;;;1.10;;
70010;SDS011;59543;37.950;-122.338;2023-05-10T04:04:57;3.65;;;0.90;;
70010;SDS011;59543;37.950;-122.338;2023-05-10T04:07:23;4.72;;;1.23;;
70010;SDS011;59543;37.950;-122.338;2023-05-10T04:09:49;5.97;;;0.95;;
70010;SDS011;59543;37.950;-122.338;2023-05-10T04:12:16;3.08;;;1.05;;
70010;SDS011;59543;37.950;-122.338;2023-05-10T04:14:42;9.43;;;1.30;;
70010;SDS011;59543;37.950;-122.338;2023-05-10T04:17:08;5.35;;;1.05;;
70010;SDS011;59543;37.950;-122.338;2023-05-10T04:19:35;5.22;;;1.38;;
70010;SDS011;59543;37.950;-122.338;2023-05-10T04:22:02;4.15;;;0.82;;
70010;SDS011;59543;37.950;-122.338;2023-05-10T04:24:28;5.85;;;1.58;;
70010;SDS011;59543;37.950;-122.338;2023-05-10T04:26:55;8.02;;;1.25;;
70010;SDS011;59543;37.950;-122.338;2023-05-10T04:29:21;6.32;;;1.23;;
70010;SDS011;59543;37.950;-122.338;2023-05-10T04:31:47;3.35;;;1.25;;
70010;SDS011;59543;37.950;-122.338;2023-05-10T04:34:14;4.57;;;1.17;;
70010;SDS011;59543;37.950;-122.338;2023-05-10T04:36:40;5.15;;;1.05;;
70010;SDS011;59543;37.950;-122.338;2023-05-10T04:39:06;4.28;;;1.13;;
70010;SDS011;59543;37.950;-122.338;2023-05-10T04:41:32;4.43;;;1.08;;
70010;SDS011;59543;37.950;-122.338;2023-05-10T04:43:59;4.82;;;1.10;;
70010;SDS011;59543;37.950;-122.338;2023-05-10T04:46:25;3.50;;;1.00;;
70010;SDS011;59543;37.950;-122.338;2023-05-10T04:48:51;3.85;;;0.90;;
70010;SDS011;59543;37.950;-122.338;2023-05-10T04:51:17;5.65;;;1.17;;
70010;SDS011;59543;37.950;-122.338;2023-05-10T04:53:44;6.88;;;1.38;;
70010;SDS011;59543;37.950;-122.338;2023-05-10T04:56:10;5.65;;;1.10;;
70010;SDS011;59543;37.950;-122.338;2023-05-10T04:58:36;7.65;;;1.30;;
70010;SDS011;59543;37.950;-122.338;2023-05-10T05:01:06;6.25;;;1.13;;
70010;SDS011;59543;37.950;-122.338;2023-05-10T05:03:34;8.07;;;1.65;;
70010;SDS011;59543;37.950;-122.338;2023-05-10T05:06:01;5.78;;;1.10;;
70010;SDS011;59543;37.950;-122.338;2023-05-10T05:08:28;3.50;;;1.05;;
70010;SDS011;59543;37.950;-122.338;2023-05-10T05:10:54;5.72;;;1.45;;
70010;SDS011;59543;37.950;-122.338;2023-05-10T05:13:20;5.82;;;1.42;;
70010;SDS011;59543;37.950;-122.338;2023-05-10T05:15:47;7.78;;;1.73;;
70010;SDS011;59543;37.950;-122.338;2023-05-10T05:18:13;4.25;;;1.27;;
70010;SDS011;59543;37.950;-122.338;2023-05-10T05:20:39;5.72;;;1.25;;
70010;SDS011;59543;37.950;-122.338;2023-05-10T05:23:06;7.65;;;1.10;;
70010;SDS011;59543;37.950;-122.338;2023-05-10T05:25:32;5.03;;;1.52;;
70010;SDS011;59543;37.950;-122.338;2023-05-10T05:27:58;5.55;;;1.17;;
70010;SDS011;59543;37.950;-122.338;2023-05-10T05:30:24;6.38;;;1.48;;
70010;SDS011;59543;37.950;-122.338;2023-05-10T05:32:50;6.28;;;1.10;;
70010;SDS011;59543;37.950;-122.338;2023-05-10T05:35:17;2.55;;;1.08;;
70010;SDS011;59543;37.950;-122.338;2023-05-10T05:37:43;8.38;;;1.38;;
70010;SDS011;59543;37.950;-122.338;2023-05-10T05:40:12;3.92;;;1.13;;
70010;SDS011;59543;37.950;-122.338;2023-05-10T05:42:39;6.97;;;1.13;;
70010;SDS011;59543;37.950;-122.338;2023-05-10T05:45:05;6.55;;;1.20;;
70010;SDS011;59543;37.950;-122.338;2023-05-10T05:47:34;4.80;;;1.20;;
70010;SDS011;59543;37.950;-122.338;2023-05-10T05:50:00;4.05;;;1.15;;
70010;SDS011;59543;37.950;-122.338;2023-05-10T05:52:26;4.95;;;1.40;;
70010;SDS011;59543;37.950;-122.338;2023-05-10T05:54:52;4.78;;;1.10;;
70010;SDS011;59543;37.950;-122.338;2023-05-10T05:57:19;5.97;;;1.55;;
70010;SDS011;59543;37.950;-122.338;2023-05-10T05:59:45;7.63;;;1.50;;
70010;SDS011;59543;37.950;-122.338;2023-05-10T06:02:11;5.65;;;1.23;;
70010;SDS011;59543;37.950;-122.338;2023-05-10T06:04:37;7.00;;;1.70;;
70010;SDS011;59543;37.950;-122.338;2023-05-10T06:07:04;3.15;;;0.95;;
70010;SDS011;59543;37.950;-122.338;2023-05-10T06:09:30;6.35;;;1.38;;
70010;SDS011;59543;37.950;-122.338;2023-05-10T06:11:56;6.07;;;1.50;;
70010;SDS011;59543;37.950;-122.338;2023-05-10T06:14:22;6.40;;;1.65;;
70010;SDS011;59543;37.950;-122.338;2023-05-10T06:16:49;10.77;;;1.73;;
70010;SDS011;59543;37.950;-122.338;2023-05-10T06:19:15;7.35;;;1.65;;
70010;SDS011;59543;37.950;-122.338;2023-05-10T06:21:41;6.10;;;1.48;;
70010;SDS011;59543;37.950;-122.338;2023-05-10T06:24:07;4.65;;;1.30;;
70010;SDS011;59543;37.950;-122.338;2023-05-10T06:26:33;6.53;;;1.10;;
70010;SDS011;59543;37.950;-122.338;2023-05-10T06:29:00;4.90;;;1.55;;
70010;SDS011;59543;37.950;-122.338;2023-05-10T06:31:26;6.03;;;1.10;;
70010;SDS011;59543;37.950;-122.338;2023-05-10T06:33:52;5.50;;;1.20;;
70010;SDS011;59543;37.950;-122.338;2023-05-10T06:36:19;7.72;;;1.67;;
70010;SDS011;59543;37.950;-122.338;2023-05-10T06:38:45;9.02;;;1.80;;
70010;SDS011;59543;37.950;-122.338;2023-05-10T06:41:11;11.15;;;2.33;;
70010;SDS011;59543;37.950;-122.338;2023-05-10T06:43:37;9.00;;;2.08;;
70010;SDS011;59543;37.950;-122.338;2023-05-10T06:46:06;8.50;;;1.90;;
70010;SDS011;59543;37.950;-122.338;2023-05-10T06:48:32;12.55;;;2.30;;
70010;SDS011;59543;37.950;-122.338;2023-05-10T06:50:59;12.02;;;2.10;;
70010;SDS011;59543;37.950;-122.338;2023-05-10T06:53:25;10.43;;;2.35;;
70010;SDS011;59543;37.950;-122.338;2023-05-10T06:55:51;10.73;;;2.63;;
70010;SDS011;59543;37.950;-122.338;2023-05-10T06:58:18;17.35;;;3.33;;
70010;SDS011;59543;37.950;-122.338;2023-05-10T07:00:44;14.05;;;2.55;;
70010;SDS011;59543;37.950;-122.338;2023-05-10T07:03:12;11.95;;;2.30;;
70010;SDS011;59543;37.950;-122.338;2023-05-10T07:05:38;7.72;;;2.20;;
70010;SDS011;59543;37.950;-122.338;2023-05-10T07:08:04;8.98;;;2.42;;
70010;SDS011;59543;37.950;-122.338;2023-05-10T07:10:30;11.88;;;2.63;;
70010;SDS011;59543;37.950;-122.338;2023-05-10T07:12:56;7.47;;;2.08;;
70010;SDS011;59543;37.950;-122.338;2023-05-10T07:15:23;9.77;;;2.40;;
70010;SDS011;59543;37.950;-122.338;2023-05-10T07:17:49;11.05;;;2.70;;
70010;SDS011;59543;37.950;-122.338;2023-05-10T07:20:17;13.05;;;2.75;;
70010;SDS011;59543;37.950;-122.338;2023-05-10T07:22:43;10.60;;;2.47;;
70010;SDS011;59543;37.950;-122.338;2023-05-10T07:25:09;10.32;;;2.13;;
70010;SDS011;59543;37.950;-122.338;2023-05-10T07:27:36;11.18;;;2.58;;
70010;SDS011;59543;37.950;-122.338;2023-05-10T07:30:02;13.88;;;2.90;;
70010;SDS011;59543;37.950;-122.338;2023-05-10T07:32:28;16.60;;;2.42;;
70010;SDS011;59543;37.950;-122.338;2023-05-10T07:34:54;12.65;;;2.63;;
70010;SDS011;59543;37.950;-122.338;2023-05-10T07:37:21;12.75;;;2.28;;
70010;SDS011;59543;37.950;-122.338;2023-05-10T07:39:47;15.55;;;3.20;;
70010;SDS011;59543;37.950;-122.338;2023-05-10T07:42:13;10.40;;;2.58;;
70010;SDS011;59543;37.950;-122.338;2023-05-10T07:44:39;14.85;;;2.85;;
70010;SDS011;59543;37.950;-122.338;2023-05-10T07:47:05;17.00;;;3.10;;
70010;SDS011;59543;37.950;-122.338;2023-05-10T07:49:32;16.85;;;3.28;;
70010;SDS011;59543;37.950;-122.338;2023-05-10T07:51:58;11.73;;;3.10;;
70010;SDS011;59543;37.950;-122.338;2023-05-10T07:54:24;12.75;;;2.97;;
70010;SDS011;59543;37.950;-122.338;2023-05-10T07:56:51;14.13;;;3.42;;
70010;SDS011;59543;37.950;-122.338;2023-05-10T07:59:17;14.18;;;3.50;;
70010;SDS011;59543;37.950;-122.338;2023-05-10T08:01:44;12.43;;;2.90;;
70010;SDS011;59543;37.950;-122.338;2023-05-10T08:04:10;17.45;;;3.33;;
70010;SDS011;59543;37.950;-122.338;2023-05-10T08:06:36;19.65;;;4.40;;
70010;SDS011;59543;37.950;-122.338;2023-05-10T08:09:03;14.77;;;3.42;;
70010;SDS011;59543;37.950;-122.338;2023-05-10T08:11:29;12.68;;;2.92;;
70010;SDS011;59543;37.950;-122.338;2023-05-10T08:13:55;15.18;;;3.65;;
70010;SDS011;59543;37.950;-122.338;2023-05-10T08:16:21;18.58;;;3.20;;
70010;SDS011;59543;37.950;-122.338;2023-05-10T08:18:48;16.00;;;3.47;;
70010;SDS011;59543;37.950;-122.338;2023-05-10T08:21:15;15.18;;;3.33;;
70010;SDS011;59543;37.950;-122.338;2023-05-10T08:23:42;11.98;;;3.05;;
70010;SDS011;59543;37.950;-122.338;2023-05-10T08:26:11;14.52;;;3.60;;
70010;SDS011;59543;37.950;-122.338;2023-05-10T08:28:37;12.27;;;3.17;;
70010;SDS011;59543;37.950;-122.338;2023-05-10T08:31:04;16.45;;;3.50;;
70010;SDS011;59543;37.950;-122.338;2023-05-10T08:33:30;18.00;;;3.05;;
70010;SDS011;59543;37.950;-122.338;2023-05-10T08:35:57;22.20;;;3.05;;
70010;SDS011;59543;37.950;-122.338;2023-05-10T08:38:23;12.90;;;3.20;;
70010;SDS011;59543;37.950;-122.338;2023-05-10T08:40:50;18.58;;;3.72;;
70010;SDS011;59543;37.950;-122.338;2023-05-10T08:43:25;13.38;;;3.30;;
70010;SDS011;59543;37.950;-122.338;2023-05-10T08:45:54;15.07;;;3.22;;
70010;SDS011;59543;37.950;-122.338;2023-05-10T08:48:24;16.92;;;3.80;;
70010;SDS011;59543;37.950;-122.338;2023-05-10T08:50:52;11.23;;;2.65;;
70010;SDS011;59543;37.950;-122.338;2023-05-10T08:53:23;16.00;;;3.08;;
70010;SDS011;59543;37.950;-122.338;2023-05-10T08:55:53;20.20;;;3.30;;
70010;SDS011;59543;37.950;-122.338;2023-05-10T08:58:20;14.10;;;3.28;;
70010;SDS011;59543;37.950;-122.338;2023-05-10T09:00:48;11.60;;;2.95;;
70010;SDS011;59543;37.950;-122.338;2023-05-10T09:03:16;19.85;;;3.63;;
70010;SDS011;59543;37.950;-122.338;2023-05-10T09:05:43;19.25;;;3.30;;
70010;SDS011;59543;37.950;-122.338;2023-05-10T09:08:10;13.52;;;3.08;;
70010;SDS011;59543;37.950;-122.338;2023-05-10T09:10:38;16.95;;;3.17;;
70010;SDS011;59543;37.950;-122.338;2023-05-10T09:13:05;13.60;;;3.22;;
70010;SDS011;59543;37.950;-122.338;2023-05-10T09:15:32;12.55;;;2.80;;
70010;SDS011;59543;37.950;-122.338;2023-05-10T09:17:59;9.75;;;2.70;;
70010;SDS011;59543;37.950;-122.338;2023-05-10T09:20:27;13.77;;;3.30;;
70010;SDS011;59543;37.950;-122.338;2023-05-10T09:22:54;13.35;;;2.88;;
70010;SDS011;59543;37.950;-122.338;2023-05-10T09:25:20;11.82;;;2.97;;
70010;SDS011;59543;37.950;-122.338;2023-05-10T09:27:47;19.23;;;3.42;;
70010;SDS011;59543;37.950;-122.338;2023-05-10T09:30:15;13.85;;;3.03;;
70010;SDS011;59543;37.950;-122.338;2023-05-10T09:32:44;12.63;;;3.25;;
70010;SDS011;59543;37.950;-122.338;2023-05-10T09:35:12;15.10;;;3.20;;
70010;SDS011;59543;37.950;-122.338;2023-05-10T09:37:48;12.93;;;3.28;;
70010;SDS011;59543;37.950;-122.338;2023-05-10T09:40:17;14.82;;;3.53;;
70010;SDS011;59543;37.950;-122.338;2023-05-10T09:43:00;17.65;;;3.47;;
70010;SDS011;59543;37.950;-122.338;2023-05-10T09:45:29;19.98;;;3.75;;
70010;SDS011;59543;37.950;-122.338;2023-05-10T09:47:57;12.57;;;3.03;;
70010;SDS011;59543;37.950;-122.338;2023-05-10T09:50:24;14.38;;;3.60;;
70010;SDS011;59543;37.950;-122.338;2023-05-10T09:55:23;15.65;;;3.45;;
70010;SDS011;59543;37.950;-122.338;2023-05-10T09:57:58;18.10;;;3.63;;
70010;SDS011;59543;37.950;-122.338;2023-05-10T10:00:26;10.98;;;2.97;;
70010;SDS011;59543;37.950;-122.338;2023-05-10T10:02:57;20.25;;;3.60;;
70010;SDS011;59543;37.950;-122.338;2023-05-10T10:05:31;11.70;;;3.10;;
70010;SDS011;59543;37.950;-122.338;2023-05-10T10:07:59;14.20;;;3.08;;
70010;SDS011;59543;37.950;-122.338;2023-05-10T10:10:27;18.10;;;4.05;;
70010;SDS011;59543;37.950;-122.338;2023-05-10T10:12:54;14.98;;;3.47;;
70010;SDS011;59543;37.950;-122.338;2023-05-10T10:15:21;17.10;;;3.25;;
70010;SDS011;59543;37.950;-122.338;2023-05-10T10:17:48;14.40;;;3.33;;
70010;SDS011;59543;37.950;-122.338;2023-05-10T10:20:16;11.10;;;2.80;;
70010;SDS011;59543;37.950;-122.338;2023-05-10T10:22:43;13.98;;;3.78;;
70010;SDS011;59543;37.950;-122.338;2023-05-10T10:25:15;15.90;;;4.00;;
70010;SDS011;59543;37.950;-122.338;2023-05-10T10:30:25;11.48;;;2.90;;
70010;SDS011;59543;37.950;-122.338;2023-05-10T10:35:38;16.60;;;3.30;;
70010;SDS011;59543;37.950;-122.338;2023-05-10T10:38:07;16.05;;;2.80;;
70010;SDS011;59543;37.950;-122.338;2023-05-10T10:40:34;16.27;;;3.17;;
70010;SDS011;59543;37.950;-122.338;2023-05-10T10:48:41;16.27;;;3.83;;
70010;SDS011;59543;37.950;-122.338;2023-05-10T10:51:12;19.10;;;4.35;;
70010;SDS011;59543;37.950;-122.338;2023-05-10T10:53:40;18.63;;;4.30;;
70010;SDS011;59543;37.950;-122.338;2023-05-10T10:56:07;21.83;;;4.32;;
70010;SDS011;59543;37.950;-122.338;2023-05-10T10:58:35;25.13;;;4.25;;
70010;SDS011;59543;37.950;-122.338;2023-05-10T11:01:09;19.38;;;3.67;;
70010;SDS011;59543;37.950;-122.338;2023-05-10T11:06:45;18.05;;;3.53;;
70010;SDS011;59543;37.950;-122.338;2023-05-10T11:09:11;17.38;;;3.63;;
70010;SDS011;59543;37.950;-122.338;2023-05-10T11:11:51;12.65;;;3.30;;
70010;SDS011;59543;37.950;-122.338;2023-05-10T11:14:22;22.48;;;4.22;;
70010;SDS011;59543;37.950;-122.338;2023-05-10T11:16:49;15.30;;;3.58;;
70010;SDS011;59543;37.950;-122.338;2023-05-10T11:19:16;14.50;;;3.88;;
70010;SDS011;59543;37.950;-122.338;2023-05-10T11:21:45;22.80;;;3.88;;
70010;SDS011;59543;37.950;-122.338;2023-05-10T11:24:19;18.88;;;4.32;;
70010;SDS011;59543;37.950;-122.338;2023-05-10T11:26:52;20.27;;;4.25;;
70010;SDS011;59543;37.950;-122.338;2023-05-10T11:29:19;27.27;;;4.60;;
70010;SDS011;59543;37.950;-122.338;2023-05-10T11:31:46;17.38;;;3.83;;
70010;SDS011;59543;37.950;-122.338;2023-05-10T11:34:26;19.75;;;4.22;;
70010;SDS011;59543;37.950;-122.338;2023-05-10T11:36:55;17.58;;;3.83;;
70010;SDS011;59543;37.950;-122.338;2023-05-10T11:39:29;14.65;;;3.13;;
70010;SDS011;59543;37.950;-122.338;2023-05-10T11:41:57;15.65;;;4.13;;
70010;SDS011;59543;37.950;-122.338;2023-05-10T11:44:28;12.32;;;3.60;;
70010;SDS011;59543;37.950;-122.338;2023-05-10T11:47:01;11.57;;;3.10;;
70010;SDS011;59543;37.950;-122.338;2023-05-10T11:49:28;11.60;;;3.45;;
70010;SDS011;59543;37.950;-122.338;2023-05-10T11:52:12;11.25;;;3.47;;
70010;SDS011;59543;37.950;-122.338;2023-05-10T11:55:11;13.90;;;3.17;;
70010;SDS011;59543;37.950;-122.338;2023-05-10T11:57:31;14.77;;;3.60;;
70010;SDS011;59543;37.950;-122.338;2023-05-10T11:59:57;20.05;;;3.95;;
70010;SDS011;59543;37.950;-122.338;2023-05-10T12:02:23;15.60;;;3.75;;
70010;SDS011;59543;37.950;-122.338;2023-05-10T12:04:50;19.08;;;4.28;;
70010;SDS011;59543;37.950;-122.338;2023-05-10T12:07:17;15.50;;;3.47;;
70010;SDS011;59543;37.950;-122.338;2023-05-10T12:09:44;15.10;;;2.95;;
70010;SDS011;59543;37.950;-122.338;2023-05-10T12:12:15;22.15;;;3.90;;
70010;SDS011;59543;37.950;-122.338;2023-05-10T12:14:42;17.17;;;4.10;;
70010;SDS011;59543;37.950;-122.338;2023-05-10T12:17:11;15.25;;;3.25;;
70010;SDS011;59543;37.950;-122.338;2023-05-10T12:19:38;16.48;;;3.25;;
70010;SDS011;59543;37.950;-122.338;2023-05-10T12:22:05;21.30;;;4.05;;
70010;SDS011;59543;37.950;-122.338;2023-05-10T12:24:33;11.05;;;2.80;;
70010;SDS011;59543;37.950;-122.338;2023-05-10T12:27:04;12.43;;;3.03;;
70010;SDS011;59543;37.950;-122.338;2023-05-10T12:29:33;16.05;;;3.05;;
70010;SDS011;59543;37.950;-122.338;2023-05-10T12:31:59;16.17;;;3.28;;
70010;SDS011;59543;37.950;-122.338;2023-05-10T12:34:35;13.73;;;3.17;;
70010;SDS011;59543;37.950;-122.338;2023-05-10T12:37:02;18.05;;;3.20;;
70010;SDS011;59543;37.950;-122.338;2023-05-10T12:39:42;10.18;;;2.17;;
70010;SDS011;59543;37.950;-122.338;2023-05-10T12:42:11;12.43;;;2.97;;
70010;SDS011;59543;37.950;-122.338;2023-05-10T12:44:38;12.90;;;2.80;;
70010;SDS011;59543;37.950;-122.338;2023-05-10T12:47:05;9.75;;;2.30;;
70010;SDS011;59543;37.950;-122.338;2023-05-10T12:49:31;13.52;;;2.55;;
70010;SDS011;59543;37.950;-122.338;2023-05-10T12:51:57;16.40;;;3.30;;
70010;SDS011;59543;37.950;-122.338;2023-05-10T12:54:23;18.20;;;2.95;;
70010;SDS011;59543;37.950;-122.338;2023-05-10T12:56:50;8.82;;;1.92;;
70010;SDS011;59543;37.950;-122.338;2023-05-10T12:59:16;9.50;;;2.17;;
70010;SDS011;59543;37.950;-122.338;2023-05-10T13:01:42;13.95;;;2.38;;
70010;SDS011;59543;37.950;-122.338;2023-05-10T13:04:08;14.82;;;2.72;;
70010;SDS011;59543;37.950;-122.338;2023-05-10T13:06:35;18.13;;;2.90;;
70010;SDS011;59543;37.950;-122.338;2023-05-10T13:09:01;13.63;;;2.70;;
70010;SDS011;59543;37.950;-122.338;2023-05-10T13:11:27;17.92;;;2.90;;
70010;SDS011;59543;37.950;-122.338;2023-05-10T13:13:54;11.43;;;2.33;;
70010;SDS011;59543;37.950;-122.338;2023-05-10T13:16:20;16.30;;;2.53;;
70010;SDS011;59543;37.950;-122.338;2023-05-10T13:18:47;16.25;;;3.03;;
70010;SDS011;59543;37.950;-122.338;2023-05-10T13:21:13;16.60;;;2.90;;
70010;SDS011;59543;37.950;-122.338;2023-05-10T13:23:39;11.82;;;2.80;;
70010;SDS011;59543;37.950;-122.338;2023-05-10T13:26:05;8.82;;;2.60;;
70010;SDS011;59543;37.950;-122.338;2023-05-10T13:28:31;12.73;;;2.40;;
70010;SDS011;59543;37.950;-122.338;2023-05-10T13:30:58;13.15;;;2.22;;
70010;SDS011;59543;37.950;-122.338;2023-05-10T13:33:25;10.73;;;2.22;;
70010;SDS011;59543;37.950;-122.338;2023-05-10T13:35:51;11.73;;;2.80;;
70010;SDS011;59543;37.950;-122.338;2023-05-10T13:38:17;16.25;;;3.00;;
70010;SDS011;59543;37.950;-122.338;2023-05-10T13:40:43;8.93;;;2.25;;
70010;SDS011;59543;37.950;-122.338;2023-05-10T13:43:10;11.02;;;2.22;;
70010;SDS011;59543;37.950;-122.338;2023-05-10T13:45:36;8.45;;;2.15;;
70010;SDS011;59543;37.950;-122.338;2023-05-10T13:48:02;12.18;;;2.97;;
70010;SDS011;59543;37.950;-122.338;2023-05-10T13:50:29;11.70;;;3.25;;
70010;SDS011;59543;37.950;-122.338;2023-05-10T13:52:56;9.73;;;2.65;;
70010;SDS011;59543;37.950;-122.338;2023-05-10T13:55:22;16.58;;;3.30;;
70010;SDS011;59543;37.950;-122.338;2023-05-10T13:57:48;8.45;;;2.30;;
70010;SDS011;59543;37.950;-122.338;2023-05-10T14:00:15;13.38;;;2.50;;
70010;SDS011;59543;37.950;-122.338;2023-05-10T14:02:42;12.40;;;2.83;;
70010;SDS011;59543;37.950;-122.338;2023-05-10T14:05:08;13.40;;;2.42;;
70010;SDS011;59543;37.950;-122.338;2023-05-10T14:07:34;10.02;;;2.13;;
70010;SDS011;59543;37.950;-122.338;2023-05-10T14:10:00;11.32;;;2.80;;
70010;SDS011;59543;37.950;-122.338;2023-05-10T14:12:27;9.07;;;2.63;;
70010;SDS011;59543;37.950;-122.338;2023-05-10T14:14:53;10.25;;;2.38;;
70010;SDS011;59543;37.950;-122.338;2023-05-10T14:17:19;15.23;;;2.45;;
70010;SDS011;59543;37.950;-122.338;2023-05-10T14:19:47;11.60;;;2.78;;
70010;SDS011;59543;37.950;-122.338;2023-05-10T14:22:13;10.00;;;2.10;;
70010;SDS011;59543;37.950;-122.338;2023-05-10T14:24:39;7.60;;;2.00;;
70010;SDS011;59543;37.950;-122.338;2023-05-10T14:27:06;13.25;;;2.58;;
70010;SDS011;59543;37.950;-122.338;2023-05-10T14:29:32;13.75;;;2.42;;
70010;SDS011;59543;37.950;-122.338;2023-05-10T14:31:58;9.15;;;2.25;;
70010;SDS011;59543;37.950;-122.338;2023-05-10T14:34:25;8.30;;;2.15;;
70010;SDS011;59543;37.950;-122.338;2023-05-10T14:36:51;10.60;;;2.22;;
70010;SDS011;59543;37.950;-122.338;2023-05-10T14:39:17;14.10;;;2.25;;
70010;SDS011;59543;37.950;-122.338;2023-05-10T14:41:43;9.43;;;1.92;;